Molltown, Pennsylvania
Current Conditions -  °F | °C
As of 8:54 PM on Wednesday 22 Oct 2014 (Local Time) from KRDG Reporting Station
Light Rain Light Rain  
Wind Chill: 51°   Ceiling: 4700
Heat Index: 51°   Visibility: 10mi
Dew Point: 46°   Wind: 15mph
Humidity: 83%   Direction: 340°NNW
Pressure: 29.9"   Gusts: NA
Location:  40.4504°N, 75.8012°W
Report Text: KRDG 230054Z 34013KT 10SM -RA FEW027 BKN047 OVC055 11/08 A2990 RMK AO2 SLP131 P0000 T01060078
Loading
Personal Weather Stations






























Interactive Weather Map
Tropical Storm Tracking
New forecast layout! Learn more

10-Day Weather Forecast

Advertisements
Track Severe Weather on mobile